createdAt,value
2018-07-23T00:02:33.219Z,98.70
2018-07-23T00:05:02.099Z,98.30
2018-07-23T00:07:30.944Z,98.90
2018-07-23T00:09:59.763Z,99.10
2018-07-23T00:12:28.641Z,98.80
2018-07-23T00:14:57.578Z,99.20
2018-07-23T00:17:26.487Z,98.70
2018-07-23T00:19:55.355Z,98.80
2018-07-23T00:22:24.196Z,98.70
2018-07-23T00:24:52.650Z,98.50
2018-07-23T00:27:21.462Z,98.60
2018-07-23T00:32:19.018Z,98.30
2018-07-23T00:34:47.970Z,98.30
2018-07-23T00:37:16.989Z,98.40
2018-07-23T00:39:45.840Z,98.20
2018-07-23T00:42:14.675Z,97.60
2018-07-23T00:44:43.531Z,97.50
2018-07-23T00:47:12.384Z,97.60
2018-07-23T00:52:09.960Z,97.80
2018-07-23T00:54:38.776Z,97.70
2018-07-23T00:57:07.648Z,97.80
2018-07-23T00:59:36.503Z,97.10
2018-07-23T01:02:05.410Z,96.70
2018-07-23T01:07:02.999Z,96.80
2018-07-23T01:12:00.566Z,97.20
2018-07-23T01:16:58.171Z,97.70
2018-07-23T01:19:27.054Z,97.30
2018-07-23T01:24:24.679Z,98.40
2018-07-23T01:26:53.523Z,99.30
2018-07-23T01:29:22.342Z,99.90
2018-07-23T01:31:51.201Z,99.90
2018-07-23T01:34:20.104Z,99.90
2018-07-23T01:36:48.940Z,99.90
2018-07-23T01:39:17.759Z,99.90
2018-07-23T01:41:46.563Z,99.90
2018-07-23T01:44:15.402Z,99.90
2018-07-23T01:46:44.258Z,99.90
2018-07-23T01:49:13.086Z,99.90
2018-07-23T01:51:41.914Z,99.90
2018-07-23T01:54:10.811Z,99.90
2018-07-23T01:56:39.635Z,99.90
2018-07-23T01:59:08.483Z,99.90
2018-07-23T02:01:37.311Z,99.90
2018-07-23T02:04:06.179Z,99.90
2018-07-23T02:06:35.081Z,99.90
2018-07-23T02:09:07.167Z,99.90
2018-07-23T02:11:36.066Z,99.90
2018-07-23T02:14:04.963Z,99.90
2018-07-23T02:16:33.781Z,99.90
2018-07-23T02:19:02.719Z,99.90
2018-07-23T02:21:31.806Z,99.90
2018-07-23T02:24:00.699Z,99.90
2018-07-23T02:26:29.571Z,99.90
2018-07-23T02:28:58.528Z,99.90
2018-07-23T02:31:27.411Z,99.90
2018-07-23T02:36:25.093Z,99.90
2018-07-23T02:38:54.035Z,99.90
2018-07-23T02:41:22.936Z,99.90
2018-07-23T02:43:51.778Z,99.90
2018-07-23T02:48:49.384Z,99.90
2018-07-23T02:51:18.215Z,99.90
2018-07-23T02:53:47.116Z,99.90
2018-07-23T02:56:15.935Z,99.90
2018-07-23T02:58:44.763Z,99.90
2018-07-23T03:01:13.611Z,99.90
2018-07-23T03:03:42.477Z,99.90
2018-07-23T03:08:40.105Z,99.90
2018-07-23T03:11:09.039Z,99.90
2018-07-23T03:13:37.875Z,99.90
2018-07-23T03:16:06.819Z,99.90
2018-07-23T03:18:35.659Z,99.90
2018-07-23T03:21:04.508Z,99.90
2018-07-23T03:26:02.149Z,99.90
2018-07-23T03:28:31.046Z,99.90
2018-07-23T03:30:59.896Z,99.90
2018-07-23T03:33:28.991Z,99.90
2018-07-23T03:35:57.846Z,99.90
2018-07-23T03:38:26.699Z,99.90
2018-07-23T03:40:55.519Z,99.90
2018-07-23T03:43:24.415Z,99.90
2018-07-23T03:45:53.235Z,99.90
2018-07-23T03:48:22.138Z,99.90
2018-07-23T03:50:51.079Z,99.90
2018-07-23T03:53:19.967Z,99.90
2018-07-23T03:55:48.839Z,99.90
2018-07-23T03:58:17.691Z,99.90
2018-07-23T04:03:15.272Z,99.90
2018-07-23T04:05:44.178Z,99.90
2018-07-23T04:08:13.042Z,99.90
2018-07-23T04:13:10.677Z,99.90
2018-07-23T04:15:39.494Z,99.90
2018-07-23T04:20:37.091Z,99.90
2018-07-23T04:23:06.356Z,99.90
2018-07-23T04:25:35.216Z,99.90
2018-07-23T04:28:04.139Z,99.90
2018-07-23T04:30:33.047Z,99.90
2018-07-23T04:33:01.912Z,99.90
2018-07-23T04:35:30.766Z,99.90
2018-07-23T04:37:59.656Z,99.90
2018-07-23T04:40:28.519Z,99.90
2018-07-23T04:42:57.374Z,99.90
2018-07-23T04:45:26.223Z,99.90
2018-07-23T04:47:55.239Z,99.90
2018-07-23T04:50:24.048Z,99.90
2018-07-23T04:52:52.899Z,99.90
2018-07-23T04:55:21.790Z,99.90
2018-07-23T04:57:51.510Z,99.90
2018-07-23T05:00:20.429Z,99.90
2018-07-23T05:02:49.269Z,99.90
2018-07-23T05:05:18.103Z,99.90
2018-07-23T05:07:46.990Z,99.90
2018-07-23T05:10:15.842Z,99.90
2018-07-23T05:12:44.750Z,99.90
2018-07-23T05:15:13.570Z,99.90
2018-07-23T05:17:42.407Z,99.90
2018-07-23T05:20:11.304Z,99.90
2018-07-23T05:22:40.160Z,99.90
2018-07-23T05:27:37.743Z,99.90
2018-07-23T05:30:06.908Z,99.90
2018-07-23T05:32:35.744Z,99.90
2018-07-23T05:35:05.076Z,99.90
2018-07-23T05:37:33.931Z,99.90
2018-07-23T05:40:02.863Z,99.90
2018-07-23T05:42:31.978Z,99.90
2018-07-23T05:45:00.823Z,99.90
2018-07-23T05:47:29.744Z,99.90
2018-07-23T05:49:58.589Z,99.90
2018-07-23T05:52:27.434Z,99.90
2018-07-23T05:54:56.300Z,99.90
2018-07-23T05:57:25.151Z,99.90
2018-07-23T06:02:22.748Z,99.90
2018-07-23T06:04:51.784Z,99.90
2018-07-23T06:07:20.686Z,99.90
2018-07-23T06:09:49.718Z,99.90
2018-07-23T06:12:18.745Z,99.90
2018-07-23T06:14:48.601Z,99.90
2018-07-23T06:17:17.767Z,99.90
2018-07-23T06:19:46.687Z,99.90
2018-07-23T06:24:44.443Z,99.90
2018-07-23T06:27:13.441Z,99.90
2018-07-23T06:29:42.364Z,99.90
2018-07-23T06:32:11.954Z,99.90
2018-07-23T06:34:41.135Z,99.90
2018-07-23T06:37:10.239Z,99.90
2018-07-23T06:39:39.259Z,99.90
2018-07-23T06:42:08.176Z,99.90
2018-07-23T06:44:37.167Z,99.90
2018-07-23T06:47:06.089Z,99.90
2018-07-23T06:49:35.137Z,99.90
2018-07-23T06:52:04.104Z,99.90
2018-07-23T06:54:33.139Z,99.90
2018-07-23T06:57:02.032Z,99.90
2018-07-23T06:59:31.027Z,99.90
2018-07-23T07:02:00.092Z,99.90
2018-07-23T07:04:29.177Z,99.90
2018-07-23T07:06:58.247Z,99.90
2018-07-23T07:09:27.173Z,99.90
2018-07-23T07:14:24.979Z,99.90
2018-07-23T07:16:54.055Z,99.90
2018-07-23T07:19:23.884Z,99.90
2018-07-23T07:21:52.939Z,99.90
2018-07-23T07:24:21.981Z,99.90
2018-07-23T07:26:51.019Z,99.90
2018-07-23T07:29:20.119Z,99.90
2018-07-23T07:31:49.039Z,99.90
2018-07-23T07:34:18.061Z,99.90
2018-07-23T07:36:46.984Z,99.90
2018-07-23T07:39:16.030Z,99.90
2018-07-23T07:41:45.077Z,99.90
2018-07-23T07:44:14.162Z,99.90
2018-07-23T07:49:11.980Z,99.90
2018-07-23T07:54:09.772Z,99.90
2018-07-23T07:56:38.797Z,99.90
2018-07-23T07:59:07.942Z,99.90
2018-07-23T08:06:34.611Z,99.90
2018-07-23T08:09:06.382Z,99.90
2018-07-23T08:14:04.403Z,99.90
2018-07-23T08:16:33.552Z,99.90
2018-07-23T08:19:02.575Z,99.90
2018-07-23T08:21:31.603Z,99.90
2018-07-23T08:24:00.474Z,99.90
2018-07-23T08:26:29.554Z,99.90
2018-07-23T08:28:58.460Z,99.90
2018-07-23T08:31:27.501Z,99.90
2018-07-23T08:33:56.573Z,99.90
2018-07-23T08:36:25.621Z,99.90
2018-07-23T08:38:54.998Z,99.90
2018-07-23T08:41:23.908Z,99.90
2018-07-23T08:43:52.957Z,99.90
2018-07-23T08:46:21.900Z,99.90
2018-07-23T08:48:50.941Z,99.90
2018-07-23T08:53:48.951Z,99.50
2018-07-23T08:56:17.983Z,99.90
2018-07-23T08:58:46.919Z,99.40
2018-07-23T09:01:15.967Z,99.50
2018-07-23T09:03:44.902Z,99.60
2018-07-23T09:06:13.975Z,99.90
2018-07-23T09:08:42.983Z,99.90
2018-07-23T09:11:12.016Z,99.90
2018-07-23T09:13:40.948Z,99.30
2018-07-23T09:16:09.983Z,99.80
2018-07-23T09:18:38.835Z,99.90
2018-07-23T09:21:07.861Z,98.60
2018-07-23T09:23:36.784Z,98.00
2018-07-23T09:26:06.541Z,98.60
2018-07-23T09:28:35.415Z,98.90
2018-07-23T09:31:04.479Z,98.90
2018-07-23T09:33:33.348Z,99.60
2018-07-23T09:36:02.363Z,99.80
2018-07-23T09:38:31.380Z,99.60
2018-07-23T09:41:00.466Z,99.90
2018-07-23T09:43:29.501Z,99.20
2018-07-23T09:45:58.408Z,98.60
2018-07-23T09:48:27.432Z,98.90
2018-07-23T09:53:25.202Z,98.80
2018-07-23T09:55:54.255Z,96.40
2018-07-23T09:58:23.318Z,97.10
2018-07-23T10:00:56.470Z,96.40
2018-07-23T10:03:25.425Z,95.70
2018-07-23T10:05:54.715Z,95.80
2018-07-23T10:08:24.063Z,96.40
2018-07-23T10:10:53.157Z,95.90
2018-07-23T10:13:22.194Z,96.70
2018-07-23T10:15:51.101Z,97.40
2018-07-23T10:18:20.063Z,97.00
2018-07-23T10:20:48.930Z,96.90
2018-07-23T10:23:17.940Z,96.70
2018-07-23T10:25:47.056Z,96.30
2018-07-23T10:28:16.112Z,96.00
2018-07-23T10:33:13.943Z,94.80
2018-07-23T10:35:42.983Z,95.70
2018-07-23T10:38:11.970Z,95.50
2018-07-23T10:40:41.035Z,95.70
2018-07-23T10:43:09.879Z,96.00
2018-07-23T10:48:07.881Z,97.40
2018-07-23T10:50:36.765Z,97.40
2018-07-23T10:55:34.603Z,97.60
2018-07-23T10:58:03.799Z,97.70
2018-07-23T11:00:32.815Z,98.20
2018-07-23T11:03:01.824Z,98.70
2018-07-23T11:07:59.725Z,97.70
2018-07-23T11:12:57.558Z,99.80
2018-07-23T11:15:26.588Z,99.50
2018-07-23T11:17:55.521Z,98.20
2018-07-23T11:20:24.532Z,98.40
2018-07-23T11:25:38.811Z,99.30
2018-07-23T11:27:51.407Z,99.10
2018-07-23T11:32:49.298Z,98.70
2018-07-23T11:35:18.221Z,98.30
2018-07-23T11:40:16.007Z,98.20
2018-07-23T11:45:14.033Z,98.30
2018-07-23T11:47:43.104Z,98.90
2018-07-23T11:50:12.272Z,99.00
2018-07-23T11:52:41.296Z,99.00
2018-07-23T11:55:10.394Z,98.70
2018-07-23T11:57:39.256Z,98.50
2018-07-23T12:00:08.205Z,98.30
2018-07-23T12:02:37.055Z,98.40
2018-07-23T12:10:03.927Z,99.30
2018-07-23T12:15:01.579Z,99.90
2018-07-23T12:17:30.451Z,98.80
2018-07-23T12:19:59.275Z,99.10
2018-07-23T12:22:28.112Z,99.90
2018-07-23T12:24:57.466Z,98.70
2018-07-23T12:27:26.343Z,98.40
2018-07-23T12:29:55.231Z,98.40
2018-07-23T12:32:24.134Z,98.70
2018-07-23T12:37:21.755Z,98.70
2018-07-23T12:39:51.632Z,98.80
2018-07-23T12:42:20.708Z,97.80
2018-07-23T12:44:49.581Z,98.50
2018-07-23T12:47:18.451Z,99.10
2018-07-23T12:49:47.351Z,98.70
2018-07-23T12:52:16.223Z,98.20
2018-07-23T12:54:45.057Z,99.00
2018-07-23T12:57:13.932Z,99.50
2018-07-23T12:59:42.825Z,99.40
2018-07-23T13:02:11.650Z,99.00
2018-07-23T13:07:09.216Z,99.70
2018-07-23T13:09:38.084Z,99.40
2018-07-23T13:12:07.008Z,99.70
2018-07-23T13:14:35.925Z,98.50
2018-07-23T13:17:04.788Z,99.30
2018-07-23T13:19:33.626Z,99.40
2018-07-23T13:22:02.592Z,99.50
2018-07-23T13:24:31.456Z,99.90
2018-07-23T13:29:29.070Z,99.90
2018-07-23T13:31:57.908Z,99.70
2018-07-23T13:34:26.791Z,99.40
2018-07-23T13:36:55.662Z,99.30
2018-07-23T13:39:24.566Z,99.20
2018-07-23T13:41:53.438Z,99.60
2018-07-23T13:44:22.382Z,99.00
2018-07-23T13:46:51.256Z,98.50
2018-07-23T13:49:20.103Z,98.90
2018-07-23T13:51:48.978Z,99.00
2018-07-23T13:56:46.591Z,99.10
2018-07-23T13:59:15.486Z,98.90
2018-07-23T14:01:44.329Z,98.80
2018-07-23T14:04:13.276Z,99.20
2018-07-23T14:06:42.122Z,98.80
2018-07-23T14:09:12.043Z,98.30
2018-07-23T14:11:41.051Z,97.80
2018-07-23T14:14:09.893Z,97.20
2018-07-23T14:16:38.727Z,97.30
2018-07-23T14:19:07.600Z,98.20
2018-07-23T14:21:36.510Z,97.20
2018-07-23T14:24:05.423Z,97.30
2018-07-23T14:26:34.323Z,97.10
2018-07-23T14:29:03.199Z,96.90
2018-07-23T14:31:32.037Z,96.20
2018-07-23T14:34:01.328Z,97.20
2018-07-23T14:36:30.198Z,97.20
2018-07-23T14:38:59.150Z,97.00
2018-07-23T14:41:28.080Z,98.20
2018-07-23T14:43:57.081Z,98.00
2018-07-23T14:46:25.963Z,97.30
2018-07-23T14:48:54.879Z,95.50
2018-07-23T14:53:52.476Z,95.00
2018-07-23T14:56:21.351Z,93.00
2018-07-23T14:58:50.488Z,92.60
2018-07-23T15:01:19.360Z,93.10
2018-07-23T15:03:48.252Z,92.70
2018-07-23T15:06:17.111Z,92.10
2018-07-23T15:08:45.961Z,91.40
2018-07-23T15:11:14.871Z,91.30
2018-07-23T15:13:43.733Z,90.50
2018-07-23T15:16:12.600Z,92.00
2018-07-23T15:18:41.475Z,91.00
2018-07-23T15:21:10.299Z,91.30
2018-07-23T15:23:39.156Z,90.40
2018-07-23T15:26:07.999Z,89.10
2018-07-23T15:28:36.978Z,90.40
2018-07-23T15:31:05.791Z,88.70
2018-07-23T15:33:34.633Z,88.70
2018-07-23T15:36:03.526Z,88.10
2018-07-23T15:38:32.750Z,89.30
2018-07-23T15:41:01.577Z,88.60
2018-07-23T15:43:30.412Z,89.20
2018-07-23T15:45:59.388Z,89.00
2018-07-23T15:48:28.267Z,90.10
2018-07-23T15:50:57.118Z,90.90
2018-07-23T15:53:25.983Z,90.00
2018-07-23T15:55:54.827Z,90.00
2018-07-23T15:58:23.662Z,88.80
2018-07-23T16:00:52.524Z,89.50
2018-07-23T16:03:21.359Z,89.30
2018-07-23T16:05:50.183Z,90.00
2018-07-23T16:08:19.073Z,91.30
2018-07-23T16:10:47.994Z,89.00
2018-07-23T16:13:16.810Z,89.00
2018-07-23T16:15:45.726Z,90.20
2018-07-23T16:18:14.558Z,89.80
2018-07-23T16:20:43.420Z,91.50
2018-07-23T16:23:12.246Z,91.60
2018-07-23T16:25:41.099Z,91.50
2018-07-23T16:28:09.959Z,90.90
2018-07-23T16:30:38.786Z,91.30
2018-07-23T16:33:07.668Z,92.40
2018-07-23T16:35:36.496Z,92.40
2018-07-23T16:38:05.506Z,92.30
2018-07-23T16:40:34.391Z,93.10
2018-07-23T16:43:03.327Z,92.70
2018-07-23T16:45:32.244Z,93.30
2018-07-23T16:48:01.128Z,93.90
2018-07-23T16:50:30.055Z,94.50
2018-07-23T16:52:58.923Z,94.60
2018-07-23T16:55:27.913Z,94.20
2018-07-23T16:57:56.752Z,93.10
2018-07-23T17:00:25.642Z,93.40
2018-07-23T17:03:01.281Z,93.90
2018-07-23T17:05:30.112Z,94.70
2018-07-23T17:07:59.066Z,95.10
2018-07-23T17:10:27.993Z,95.60
2018-07-23T17:15:25.803Z,96.00
2018-07-23T17:17:54.755Z,96.20
2018-07-23T17:20:23.619Z,96.90
2018-07-23T17:22:52.441Z,96.70
2018-07-23T17:25:21.302Z,97.20
2018-07-23T17:27:50.180Z,97.60
2018-07-23T17:30:19.398Z,97.50
2018-07-23T17:32:48.331Z,97.20
2018-07-23T17:35:17.255Z,97.00
2018-07-23T17:37:46.144Z,97.10
2018-07-23T17:40:15.203Z,96.90
2018-07-23T17:42:44.063Z,97.20
2018-07-23T17:45:12.958Z,97.60
2018-07-23T17:47:41.823Z,97.50
2018-07-23T17:50:10.663Z,97.70
2018-07-23T17:52:39.515Z,97.90
2018-07-23T17:55:08.443Z,97.50
2018-07-23T17:57:37.327Z,97.50
2018-07-23T18:02:34.999Z,98.50
2018-07-23T18:05:03.962Z,98.30
2018-07-23T18:07:32.851Z,98.00
2018-07-23T18:10:01.709Z,98.40
2018-07-23T18:12:30.538Z,98.40
2018-07-23T18:14:59.403Z,98.40
2018-07-23T18:17:28.291Z,99.00
2018-07-23T18:19:57.175Z,98.60
2018-07-23T18:22:26.052Z,98.90
2018-07-23T18:24:54.879Z,98.80
2018-07-23T18:27:24.695Z,98.80
2018-07-23T18:29:53.566Z,98.90
2018-07-23T18:32:22.546Z,99.20
2018-07-23T18:34:51.368Z,98.70
2018-07-23T18:37:20.256Z,98.80
2018-07-23T18:39:49.284Z,98.70
2018-07-23T18:42:18.508Z,99.00
2018-07-23T18:44:47.467Z,98.60
2018-07-23T18:47:16.800Z,98.60
2018-07-23T18:49:54.385Z,98.60
2018-07-23T18:52:24.629Z,99.00
2018-07-23T18:54:55.391Z,99.50
2018-07-23T18:57:25.072Z,99.20
2018-07-23T18:59:54.372Z,99.40
2018-07-23T19:02:23.307Z,99.00
2018-07-23T19:04:52.662Z,99.50
2018-07-23T19:07:21.651Z,99.70
2018-07-23T19:09:51.016Z,99.40
2018-07-23T19:12:20.208Z,99.40
2018-07-23T19:14:49.699Z,99.50
2018-07-23T19:17:18.704Z,99.50
2018-07-23T19:19:47.713Z,99.60
2018-07-23T19:22:16.655Z,99.70
2018-07-23T19:24:45.515Z,99.20
2018-07-23T19:27:14.438Z,99.10
2018-07-23T19:29:43.787Z,99.20
2018-07-23T19:32:13.651Z,99.30
2018-07-23T19:34:43.736Z,99.20
2018-07-23T19:37:12.667Z,99.30
2018-07-23T19:39:41.528Z,99.50
2018-07-23T19:42:11.041Z,99.40
2018-07-23T19:44:39.963Z,99.40
2018-07-23T19:47:08.903Z,99.30
2018-07-23T19:49:37.805Z,99.70
2018-07-23T19:52:07.062Z,99.50
2018-07-23T19:54:36.020Z,99.30
2018-07-23T19:57:04.888Z,99.30
2018-07-23T19:59:33.831Z,99.20
2018-07-23T20:02:02.720Z,99.50
2018-07-23T20:04:31.628Z,99.50
2018-07-23T20:09:29.279Z,99.60
2018-07-23T20:11:58.222Z,99.60
2018-07-23T20:14:27.145Z,99.70
2018-07-23T20:17:03.397Z,99.70
2018-07-23T20:19:32.407Z,99.60
2018-07-23T20:22:01.832Z,99.60
2018-07-23T20:26:59.614Z,99.50
2018-07-23T20:29:28.476Z,99.40
2018-07-23T20:31:57.415Z,99.40
2018-07-23T20:36:55.948Z,99.50
2018-07-23T20:39:24.926Z,99.50
2018-07-23T20:44:22.741Z,99.40
2018-07-23T20:46:51.560Z,99.30
2018-07-23T20:49:20.427Z,99.60
2018-07-23T20:51:49.347Z,99.40
2018-07-23T20:54:18.159Z,99.50
2018-07-23T20:56:46.995Z,99.10
2018-07-23T20:59:15.859Z,99.50
2018-07-23T21:01:44.712Z,99.20
2018-07-23T21:04:13.683Z,99.50
2018-07-23T21:06:42.606Z,99.20
2018-07-23T21:09:11.706Z,98.90
2018-07-23T21:11:40.665Z,99.20
2018-07-23T21:14:09.483Z,99.40
2018-07-23T21:16:38.400Z,99.50
2018-07-23T21:19:07.260Z,99.50
2018-07-23T21:21:36.104Z,99.50
2018-07-23T21:24:05.064Z,99.40
2018-07-23T21:26:33.921Z,99.60
2018-07-23T21:29:02.835Z,99.40
2018-07-23T21:31:31.707Z,99.40
2018-07-23T21:34:00.619Z,99.70
2018-07-23T21:36:29.507Z,99.70
2018-07-23T21:38:58.378Z,99.60
2018-07-23T21:41:27.278Z,99.50
2018-07-23T21:43:56.095Z,99.40
2018-07-23T21:46:24.968Z,99.60
2018-07-23T21:48:53.809Z,99.20
2018-07-23T21:51:22.777Z,99.40
2018-07-23T21:53:51.648Z,99.40
2018-07-23T21:56:20.503Z,99.50
2018-07-23T21:58:49.374Z,99.30
2018-07-23T22:01:18.267Z,99.70
2018-07-23T22:06:19.380Z,99.70
2018-07-23T22:11:16.983Z,99.60
2018-07-23T22:13:45.924Z,99.60
2018-07-23T22:16:14.764Z,99.50
2018-07-23T22:18:43.641Z,99.50
2018-07-23T22:23:41.742Z,99.70
2018-07-23T22:26:10.579Z,99.40
2018-07-23T22:28:39.444Z,99.60
2018-07-23T22:31:08.291Z,99.90
2018-07-23T22:33:37.119Z,99.60
2018-07-23T22:36:06.292Z,99.70
2018-07-23T22:38:35.126Z,99.90
2018-07-23T22:41:03.971Z,99.90
2018-07-23T22:43:32.816Z,99.90
2018-07-23T22:46:01.711Z,99.90
2018-07-23T22:48:30.576Z,99.90
2018-07-23T22:50:59.743Z,99.90
2018-07-23T22:53:28.608Z,99.90
2018-07-23T22:55:57.466Z,99.90
2018-07-23T22:58:26.547Z,99.90
2018-07-23T23:00:55.400Z,99.90
2018-07-23T23:03:24.268Z,99.90
2018-07-23T23:05:53.127Z,99.90
2018-07-23T23:08:21.990Z,99.70
2018-07-23T23:10:50.867Z,99.70
2018-07-23T23:13:19.752Z,99.90
2018-07-23T23:15:48.590Z,99.90
2018-07-23T23:18:17.403Z,99.90
2018-07-23T23:23:14.975Z,99.90
2018-07-23T23:25:43.783Z,99.90
2018-07-23T23:28:12.651Z,99.90
2018-07-23T23:33:10.271Z,99.90
2018-07-23T23:35:39.147Z,99.90
2018-07-23T23:38:08.067Z,99.90
2018-07-23T23:40:36.951Z,99.90
2018-07-23T23:43:06.275Z,99.90
2018-07-23T23:45:35.087Z,99.90
2018-07-23T23:48:04.019Z,99.90
2018-07-23T23:50:32.810Z,99.90
2018-07-23T23:53:01.671Z,99.90
2018-07-23T23:55:30.552Z,99.90
2018-07-23T23:57:59.376Z,99.90
